^^
Station Historical Data
Daily Summary for June 30, 2021 Units:  English    Metric   Both
Daily Weekly Monthly Yearly
  High: Low: Average:
Temperature: 79.3 °F 69.6 °F 74.5 °F
Dew Point: 71.5 °F 64.7 °F 68 °F
Humidity: 90% 68% 81%
Wind Speed: 4mph 1mph 2.4mph
Wind Gust: 9mph - -
Wind- - SW
Pressure: 30.00 in 29.89 in -
Precipitation: 0.00 in    
 
 
Tabular Data for June 30, 2021
Time Temperature Dew Point Pressure Wind Wind Speed Wind Gust Humidity Rainfall Rate (Hourly) solar
00:00 74.6 °F 70.8 °F 30.00 in NW 2 mph 2 mph 88% 0.00 in 0 W/m2
00:05 74.5 °F 70.7 °F 30.00 in West 2 mph 2 mph 88% 0.00 in 0 W/m2
00:10 74.4 °F 70.6 °F 30.00 in West 2 mph 2 mph 88% 0.00 in 0 W/m2
00:15 74.4 °F 70.9 °F 30.00 in WSW 2 mph 4 mph 89% 0.00 in 0 W/m2
00:20 74.4 °F 70.9 °F 30.00 in South 2 mph 2 mph 89% 0.00 in 0 W/m2
00:25 74.4 °F 70.9 °F 30.00 in WSW 2 mph 2 mph 89% 0.00 in 0 W/m2
00:30 74.4 °F 70.9 °F 30.00 in West 2 mph 2 mph 89% 0.00 in 0 W/m2
00:35 74.5 °F 71 °F 30.00 in SW 2 mph 3 mph 89% 0.00 in 0 W/m2
00:40 74.6 °F 71.5 °F 30.00 in WSW 2 mph 2 mph 90% 0.00 in 0 W/m2
00:45 74.6 °F 71.1 °F 30.00 in WNW 2 mph 2 mph 89% 0.00 in 0 W/m2
00:50 74.6 °F 71.5 °F 30.00 in SW 2 mph 2 mph 90% 0.00 in 0 W/m2
00:55 74.6 °F 71.5 °F 29.99 in West 2 mph 2 mph 90% 0.00 in 0 W/m2
01:00 74.6 °F 71.1 °F 29.99 in WSW 1 mph 1 mph 89% 0.00 in 0 W/m2
01:05 74.5 °F 71 °F 30.00 in WSW 1 mph 1 mph 89% 0.00 in 0 W/m2
01:10 74.5 °F 71 °F 29.99 in SW 2 mph 4 mph 89% 0.00 in 0 W/m2
01:15 74.6 °F 71.1 °F 29.99 in South 2 mph 4 mph 89% 0.00 in 0 W/m2
01:20 74.7 °F 71.2 °F 29.98 in WSW 2 mph 2 mph 89% 0.00 in 0 W/m2
01:25 74.6 °F 71.1 °F 29.98 in NW 2 mph 2 mph 89% 0.00 in 0 W/m2
01:30 74.6 °F 71.1 °F 29.98 in SW 2 mph 2 mph 89% 0.00 in 0 W/m2
01:35 74.7 °F 71.2 °F 29.98 in WNW 2 mph 2 mph 89% 0.00 in 0 W/m2
01:40 74.8 °F 71.3 °F 29.98 in SW 2 mph 2 mph 89% 0.00 in 0 W/m2
01:45 74.8 °F 71.3 °F 29.99 in SSW 2 mph 2 mph 89% 0.00 in 0 W/m2
01:50 74.9 °F 71.4 °F 29.98 in SSE 2 mph 2 mph 89% 0.00 in 0 W/m2
01:55 75 °F 71.5 °F 29.98 in South 2 mph 2 mph 89% 0.00 in 0 W/m2
02:00 75 °F 71.5 °F 29.98 in SE 2 mph 2 mph 89% 0.00 in 0 W/m2
02:05 75 °F 71.5 °F 29.98 in SSW 2 mph 3 mph 89% 0.00 in 0 W/m2
02:10 74.9 °F 71.1 °F 29.98 in SSW 3 mph 3 mph 88% 0.00 in 0 W/m2
02:15 74.8 °F 71 °F 29.98 in West 3 mph 6 mph 88% 0.00 in 0 W/m2
02:20 74.6 °F 70.5 °F 29.98 in West 3 mph 7 mph 87% 0.00 in 0 W/m2
02:25 74.5 °F 70.4 °F 29.98 in WSW 3 mph 9 mph 87% 0.00 in 0 W/m2
02:30 74.4 °F 70.3 °F 29.98 in SW 4 mph 4 mph 87% 0.00 in 0 W/m2
02:35 74.5 °F 70.7 °F 29.98 in West 4 mph 4 mph 88% 0.00 in 0 W/m2
02:40 74.6 °F 70.8 °F 29.98 in WSW 4 mph 4 mph 88% 0.00 in 0 W/m2
02:45 74.5 °F 70.4 °F 29.98 in NW 4 mph 5 mph 87% 0.00 in 0 W/m2
02:50 74.4 °F 70.6 °F 29.98 in West 4 mph 4 mph 88% 0.00 in 0 W/m2
02:55 74.4 °F 70.6 °F 29.98 in SW 3 mph 4 mph 88% 0.00 in 0 W/m2
03:00 74.3 °F 70.5 °F 29.98 in West 3 mph 4 mph 88% 0.00 in 0 W/m2
03:05 74.2 °F 70.4 °F 29.98 in SSW 3 mph 4 mph 88% 0.00 in 0 W/m2
03:10 74.1 °F 70.3 °F 29.98 in WNW 3 mph 3 mph 88% 0.00 in 0 W/m2
03:15 74 °F 70.2 °F 29.98 in SSW 3 mph 4 mph 88% 0.00 in 0 W/m2
03:20 73.8 °F 69.7 °F 29.98 in West 3 mph 4 mph 87% 0.00 in 0 W/m2
03:25 73.7 °F 69.6 °F 29.98 in WNW 4 mph 4 mph 87% 0.00 in 0 W/m2
03:30 73.6 °F 69.5 °F 29.97 in NW 3 mph 3 mph 87% 0.00 in 0 W/m2
03:35 73.5 °F 69.4 °F 29.97 in WSW 3 mph 3 mph 87% 0.00 in 0 W/m2
03:40 73.4 °F 69.3 °F 29.97 in West 3 mph 3 mph 87% 0.00 in 0 W/m2
03:45 73.3 °F 69.2 °F 29.97 in WSW 3 mph 4 mph 87% 0.00 in 0 W/m2
03:50 73.3 °F 69.5 °F 29.97 in WSW 3 mph 6 mph 88% 0.00 in 0 W/m2
03:55 73.2 °F 69.4 °F 29.97 in SW 3 mph 6 mph 88% 0.00 in 0 W/m2
04:00 73.1 °F 69.3 °F 29.97 in SW 3 mph 6 mph 88% 0.00 in 0 W/m2
04:05 73.1 °F 69.3 °F 29.96 in NNW 4 mph 6 mph 88% 0.00 in 0 W/m2
04:10 73 °F 69.2 °F 29.96 in WSW 3 mph 3 mph 88% 0.00 in 0 W/m2
04:15 73 °F 69.2 °F 29.96 in WNW 3 mph 5 mph 88% 0.00 in 0 W/m2
04:20 72.9 °F 69.1 °F 29.96 in SW 4 mph 4 mph 88% 0.00 in 0 W/m2
04:25 72.8 °F 69 °F 29.97 in SW 3 mph 4 mph 88% 0.00 in 0 W/m2
04:30 72.7 °F 68.9 °F 29.97 in WSW 4 mph 4 mph 88% 0.00 in 0 W/m2
04:35 72.6 °F 68.8 °F 29.97 in WSW 4 mph 4 mph 88% 0.00 in 0 W/m2
04:40 72.4 °F 68.3 °F 29.97 in WNW 4 mph 4 mph 87% 0.00 in 0 W/m2
04:45 72.3 °F 68.2 °F 29.96 in West 4 mph 5 mph 87% 0.00 in 0 W/m2
04:50 72.1 °F 68 °F 29.97 in WNW 4 mph 5 mph 87% 0.00 in 0 W/m2
04:55 72 °F 67.6 °F 29.96 in WSW 4 mph 5 mph 86% 0.00 in 0 W/m2
05:00 71.9 °F 67.5 °F 29.96 in NNW 4 mph 4 mph 86% 0.00 in 0 W/m2
05:05 71.8 °F 67.4 °F 29.96 in NW 4 mph 4 mph 86% 0.00 in 0 W/m2
05:10 71.6 °F 67.2 °F 29.97 in NW 4 mph 4 mph 86% 0.00 in 0 W/m2
05:15 71.5 °F 67.1 °F 29.97 in WNW 4 mph 4 mph 86% 0.00 in 0 W/m2
05:20 71.4 °F 66.7 °F 29.97 in WSW 4 mph 4 mph 85% 0.00 in 0 W/m2
05:25 71.2 °F 66.5 °F 29.97 in NW 4 mph 4 mph 85% 0.00 in 0 W/m2
05:30 71.2 °F 66.5 °F 29.97 in SW 3 mph 3 mph 85% 0.00 in 0 W/m2
05:35 71 °F 66.3 °F 29.97 in NNW 3 mph 3 mph 85% 0.00 in 0 W/m2
05:40 70.9 °F 66.2 °F 29.97 in NW 4 mph 4 mph 85% 0.00 in 0 W/m2
05:45 70.8 °F 66.1 °F 29.98 in WNW 4 mph 7 mph 85% 0.00 in 0 W/m2
05:50 70.7 °F 66 °F 29.98 in West 4 mph 4 mph 85% 0.00 in 5 W/m2
05:55 70.6 °F 65.9 °F 29.98 in West 4 mph 4 mph 85% 0.00 in 5 W/m2
06:00 70.5 °F 65.8 °F 29.98 in South 3 mph 3 mph 85% 0.00 in 7 W/m2
06:05 70.4 °F 65.7 °F 29.98 in West 3 mph 3 mph 85% 0.00 in 11 W/m2
06:10 70.3 °F 65.6 °F 29.98 in NW 4 mph 4 mph 85% 0.00 in 12 W/m2
06:15 70.2 °F 65.5 °F 29.98 in SW 3 mph 6 mph 85% 0.00 in 19 W/m2
06:20 70.1 °F 65.4 °F 29.99 in North 3 mph 6 mph 85% 0.00 in 19 W/m2
06:25 70.1 °F 65.4 °F 29.99 in NW 3 mph 6 mph 85% 0.00 in 21 W/m2
06:30 70 °F 65.3 °F 29.99 in WSW 3 mph 3 mph 85% 0.00 in 26 W/m2
06:35 69.9 °F 65.2 °F 29.99 in West 3 mph 3 mph 85% 0.00 in 28 W/m2
06:40 69.9 °F 65.2 °F 29.99 in WNW 3 mph 3 mph 85% 0.00 in 37 W/m2
06:45 69.7 °F 65 °F 29.99 in West 3 mph 4 mph 85% 0.00 in 33 W/m2
06:50 69.7 °F 65 °F 29.99 in NNW 4 mph 4 mph 85% 0.00 in 37 W/m2
06:55 69.7 °F 65 °F 29.99 in West 3 mph 4 mph 85% 0.00 in 39 W/m2
07:00 69.7 °F 65 °F 29.99 in WSW 3 mph 8 mph 85% 0.00 in 47 W/m2
07:05 69.6 °F 64.9 °F 29.99 in NW 2 mph 8 mph 85% 0.00 in 69 W/m2
07:10 69.6 °F 64.9 °F 29.99 in NW 2 mph 2 mph 85% 0.00 in 60 W/m2
07:15 69.6 °F 64.9 °F 30.00 in NNW 2 mph 2 mph 85% 0.00 in 42 W/m2
07:20 69.7 °F 65 °F 29.99 in West 2 mph 2 mph 85% 0.00 in 44 W/m2
07:25 69.7 °F 65 °F 29.99 in WSW 2 mph 2 mph 85% 0.00 in 44 W/m2
07:30 69.7 °F 65 °F 29.99 in WSW 2 mph 5 mph 85% 0.00 in 54 W/m2
07:35 69.7 °F 65 °F 29.99 in WNW 2 mph 5 mph 85% 0.00 in 83 W/m2
07:40 69.7 °F 65 °F 29.99 in West 3 mph 3 mph 85% 0.00 in 213 W/m2
07:45 69.7 °F 65 °F 29.99 in WNW 3 mph 4 mph 85% 0.00 in 100 W/m2
07:50 69.7 °F 65 °F 29.99 in WNW 3 mph 3 mph 85% 0.00 in 84 W/m2
07:55 69.7 °F 65 °F 29.99 in WSW 3 mph 3 mph 85% 0.00 in 104 W/m2
08:00 69.7 °F 65 °F 29.99 in West 2 mph 4 mph 85% 0.00 in 225 W/m2
08:05 69.8 °F 65.1 °F 29.99 in WNW 2 mph 4 mph 85% 0.00 in 95 W/m2
08:10 69.8 °F 65.1 °F 29.98 in WSW 2 mph 2 mph 85% 0.00 in 90 W/m2
08:15 69.8 °F 64.7 °F 29.99 in NW 2 mph 2 mph 84% 0.00 in 97 W/m2
08:20 69.8 °F 64.7 °F 29.99 in NNW 3 mph 3 mph 84% 0.00 in 248 W/m2
08:25 69.8 °F 65.1 °F 29.99 in WNW 3 mph 3 mph 85% 0.00 in 206 W/m2
08:30 69.8 °F 65.1 °F 29.99 in ENE 2 mph 2 mph 85% 0.00 in 206 W/m2
08:35 69.9 °F 65.2 °F 29.99 in WNW 2 mph 4 mph 85% 0.00 in 193 W/m2
08:40 70 °F 65.3 °F 29.99 in WSW 2 mph 5 mph 85% 0.00 in 250 W/m2
08:45 70 °F 64.9 °F 29.99 in NNW 3 mph 5 mph 84% 0.00 in 369 W/m2
08:50 70 °F 64.9 °F 29.99 in West 3 mph 3 mph 84% 0.00 in 424 W/m2
08:55 70.1 °F 65 °F 29.99 in SW 3 mph 3 mph 84% 0.00 in 388 W/m2
09:00 70.2 °F 65.1 °F 29.99 in NNW 3 mph 5 mph 84% 0.00 in 387 W/m2
09:05 70.3 °F 65.2 °F 30.00 in WSW 3 mph 5 mph 84% 0.00 in 487 W/m2
09:10 70.5 °F 65.4 °F 30.00 in West 3 mph 3 mph 84% 0.00 in 515 W/m2
09:15 70.6 °F 65.5 °F 30.00 in NNW 4 mph 4 mph 84% 0.00 in 496 W/m2
09:20 70.8 °F 65.7 °F 30.00 in NW 4 mph 6 mph 84% 0.00 in 504 W/m2
09:25 70.9 °F 65.5 °F 30.00 in WNW 4 mph 6 mph 83% 0.00 in 276 W/m2
09:30 71 °F 65.2 °F 30.00 in North 3 mph 3 mph 82% 0.00 in 450 W/m2
09:35 71.1 °F 65.3 °F 30.00 in West 3 mph 3 mph 82% 0.00 in 526 W/m2
09:40 71.1 °F 65.3 °F 30.00 in NW 3 mph 3 mph 82% 0.00 in 459 W/m2
09:45 71.2 °F 65.4 °F 30.00 in West 4 mph 5 mph 82% 0.00 in 269 W/m2
09:50 71.3 °F 65.5 °F 30.00 in WSW 3 mph 5 mph 82% 0.00 in 213 W/m2
09:55 71.3 °F 65.5 °F 30.00 in NNW 3 mph 5 mph 82% 0.00 in 455 W/m2
10:00 71.3 °F 65.5 °F 30.00 in WNW 3 mph 3 mph 82% 0.00 in 292 W/m2
10:05 71.4 °F 66 °F 30.00 in WNW 2 mph 3 mph 83% 0.00 in 179 W/m2
10:10 71.4 °F 65.6 °F 30.00 in NW 2 mph 3 mph 82% 0.00 in 455 W/m2
10:15 71.5 °F 66.1 °F 30.00 in NW 2 mph 3 mph 83% 0.00 in 232 W/m2
10:20 71.5 °F 66.1 °F 30.00 in West 2 mph 7 mph 83% 0.00 in 362 W/m2
10:25 71.5 °F 66.1 °F 30.00 in WNW 2 mph 7 mph 83% 0.00 in 468 W/m2
10:30 71.5 °F 66.4 °F 30.00 in NE 2 mph 2 mph 84% 0.00 in 550 W/m2
10:35 71.5 °F 66.1 °F 30.00 in East 2 mph 2 mph 83% 0.00 in 708 W/m2
10:40 71.5 °F 66.1 °F 30.00 in WSW 3 mph 4 mph 83% 0.00 in 721 W/m2
10:45 71.5 °F 66.4 °F 30.00 in NNE 3 mph 4 mph 84% 0.00 in 701 W/m2
10:50 71.7 °F 66.3 °F 30.00 in SW 3 mph 3 mph 83% 0.00 in 654 W/m2
10:55 71.7 °F 66.3 °F 30.00 in SSE 3 mph 4 mph 83% 0.00 in 775 W/m2
11:00 71.8 °F 66.4 °F 30.00 in West 3 mph 3 mph 83% 0.00 in 768 W/m2
11:05 71.8 °F 66.4 °F 30.00 in South 3 mph 7 mph 83% 0.00 in 795 W/m2
11:10 71.8 °F 66.4 °F 30.00 in West 3 mph 3 mph 83% 0.00 in 782 W/m2
11:15 71.8 °F 66.4 °F 30.00 in South 3 mph 6 mph 83% 0.00 in 780 W/m2
11:20 71.8 °F 66 °F 30.00 in East 3 mph 3 mph 82% 0.00 in 779 W/m2
11:25 71.9 °F 66.5 °F 30.00 in WSW 3 mph 6 mph 83% 0.00 in 763 W/m2
11:30 72 °F 66.6 °F 30.00 in NE 3 mph 3 mph 83% 0.00 in 773 W/m2
11:35 72.1 °F 66.6 °F 30.00 in WSW 3 mph 4 mph 83% 0.00 in 671 W/m2
11:40 72.2 °F 66.4 °F 30.00 in SSW 3 mph 3 mph 82% 0.00 in 515 W/m2
11:45 72.2 °F 67.1 °F 30.00 in SSW 3 mph 4 mph 84% 0.00 in 807 W/m2
11:50 72.3 °F 66.8 °F 30.00 in WSW 3 mph 3 mph 83% 0.00 in 780 W/m2
11:55 72.3 °F 66.8 °F 30.00 in SW 3 mph 3 mph 83% 0.00 in 810 W/m2
12:00 72.4 °F 66.9 °F 30.00 in WSW 3 mph 3 mph 83% 0.00 in 793 W/m2
12:05 72.5 °F 67 °F 30.00 in NNW 3 mph 3 mph 83% 0.00 in 823 W/m2
12:10 72.7 °F 67.2 °F 30.00 in SW 3 mph 3 mph 83% 0.00 in 844 W/m2
12:15 72.9 °F 67.4 °F 30.00 in South 3 mph 3 mph 83% 0.00 in 814 W/m2
12:20 73.1 °F 67.3 °F 30.00 in SW 3 mph 6 mph 82% 0.00 in 884 W/m2
12:25 73.4 °F 67.6 °F 30.00 in SSW 3 mph 6 mph 82% 0.00 in 712 W/m2
12:30 73.5 °F 67.3 °F 30.00 in WSW 3 mph 3 mph 81% 0.00 in 751 W/m2
12:35 73.7 °F 67.9 °F 30.00 in West 3 mph 4 mph 82% 0.00 in 816 W/m2
12:40 73.6 °F 67.4 °F 29.99 in WSW 3 mph 4 mph 81% 0.00 in 923 W/m2
12:45 73.7 °F 67.5 °F 29.99 in SW 3 mph 4 mph 81% 0.00 in 735 W/m2
12:50 73.5 °F 66.9 °F 29.99 in SW 3 mph 3 mph 80% 0.00 in 914 W/m2
12:55 73.6 °F 67.8 °F 29.99 in SSW 2 mph 3 mph 82% 0.00 in 895 W/m2
13:00 74 °F 68.2 °F 29.99 in SSW 2 mph 3 mph 82% 0.00 in 918 W/m2
13:05 73.6 °F 67.8 °F 29.99 in South 2 mph 4 mph 82% 0.00 in 710 W/m2
13:10 73.7 °F 67.1 °F 29.99 in SE 2 mph 2 mph 80% 0.00 in 888 W/m2
13:15 73.9 °F 68.4 °F 29.99 in SW 2 mph 4 mph 83% 0.00 in 830 W/m2
13:20 74.3 °F 67.7 °F 29.99 in SSE 2 mph 2 mph 80% 0.00 in 907 W/m2
13:25 74.9 °F 67.9 °F 29.98 in SW 3 mph 3 mph 79% 0.00 in 930 W/m2
13:30 74.9 °F 67.6 °F 29.98 in SSW 2 mph 3 mph 78% 0.00 in 919 W/m2
13:35 75.2 °F 68.2 °F 29.98 in SSW 2 mph 3 mph 79% 0.00 in 826 W/m2
13:40 74.9 °F 67.6 °F 29.98 in SW 2 mph 2 mph 78% 0.00 in 881 W/m2
13:45 74.9 °F 67.6 °F 29.98 in SE 2 mph 2 mph 78% 0.00 in 874 W/m2
13:50 74.9 °F 68.7 °F 29.98 in South 2 mph 3 mph 81% 0.00 in 909 W/m2
13:55 74.9 °F 67.6 °F 29.98 in SSE 1 mph 3 mph 78% 0.00 in 782 W/m2
14:00 75.3 °F 68.7 °F 29.97 in SSW 2 mph 2 mph 80% 0.00 in 923 W/m2
14:05 75.2 °F 67.1 °F 29.97 in SSW 2 mph 2 mph 76% 0.00 in 884 W/m2
14:10 75.2 °F 67.9 °F 29.97 in SSW 2 mph 2 mph 78% 0.00 in 902 W/m2
14:15 75.4 °F 68.1 °F 29.97 in SE 2 mph 2 mph 78% 0.00 in 775 W/m2
14:20 75.5 °F 67.4 °F 29.97 in SW 2 mph 3 mph 76% 0.00 in 705 W/m2
14:25 75.5 °F 67 °F 29.96 in SE 2 mph 3 mph 75% 0.00 in 900 W/m2
14:30 75.8 °F 67.3 °F 29.96 in SSW 2 mph 2 mph 75% 0.00 in 884 W/m2
14:35 76.4 °F 67.5 °F 29.96 in SSW 2 mph 3 mph 74% 0.00 in 849 W/m2
14:40 76.9 °F 68 °F 29.96 in ESE 2 mph 2 mph 74% 0.00 in 900 W/m2
14:45 77.1 °F 67.8 °F 29.95 in SSW 1 mph 2 mph 73% 0.00 in 896 W/m2
14:50 77 °F 67.7 °F 29.95 in SE 2 mph 2 mph 73% 0.00 in 561 W/m2
14:55 77 °F 68.1 °F 29.95 in ENE 1 mph 2 mph 74% 0.00 in 610 W/m2
15:00 77.4 °F 67.3 °F 29.95 in West 1 mph 1 mph 71% 0.00 in 733 W/m2
15:05 77.4 °F 67.7 °F 29.95 in ESE 1 mph 1 mph 72% 0.00 in 870 W/m2
15:10 77.3 °F 66.7 °F 29.95 in SE 2 mph 2 mph 70% 0.00 in 840 W/m2
15:15 77.4 °F 67.7 °F 29.95 in South 2 mph 2 mph 72% 0.00 in 831 W/m2
15:20 77.6 °F 67.4 °F 29.94 in South 2 mph 2 mph 71% 0.00 in 823 W/m2
15:25 77.6 °F 67.9 °F 29.94 in West 2 mph 2 mph 72% 0.00 in 816 W/m2
15:30 77.7 °F 66.7 °F 29.94 in East 2 mph 2 mph 69% 0.00 in 810 W/m2
15:35 78 °F 68.2 °F 29.94 in South 2 mph 2 mph 72% 0.00 in 802 W/m2
15:40 78.3 °F 67.7 °F 29.93 in SW 2 mph 3 mph 70% 0.00 in 793 W/m2
15:45 78.5 °F 67.9 °F 29.93 in SW 3 mph 3 mph 70% 0.00 in 786 W/m2
15:50 78.6 °F 68.4 °F 29.93 in WSW 2 mph 2 mph 71% 0.00 in 780 W/m2
15:55 78.5 °F 68.7 °F 29.93 in WSW 2 mph 2 mph 72% 0.00 in 773 W/m2
16:00 78.5 °F 67.9 °F 29.93 in SSE 2 mph 4 mph 70% 0.00 in 761 W/m2
16:05 78.5 °F 68.7 °F 29.93 in South 2 mph 4 mph 72% 0.00 in 752 W/m2
16:10 78.6 °F 68.4 °F 29.93 in SSW 2 mph 2 mph 71% 0.00 in 747 W/m2
16:15 78.6 °F 68 °F 29.93 in SW 3 mph 3 mph 70% 0.00 in 742 W/m2
16:20 78.4 °F 68.2 °F 29.93 in SSW 3 mph 3 mph 71% 0.00 in 728 W/m2
16:25 78.3 °F 68.1 °F 29.93 in West 3 mph 3 mph 71% 0.00 in 742 W/m2
16:30 78.5 °F 67.5 °F 29.93 in South 2 mph 2 mph 69% 0.00 in 758 W/m2
16:35 78.6 °F 67.2 °F 29.93 in South 2 mph 2 mph 68% 0.00 in 461 W/m2
16:40 78.7 °F 67.7 °F 29.93 in WSW 2 mph 2 mph 69% 0.00 in 782 W/m2
16:45 79 °F 68.4 °F 29.93 in SSW 3 mph 3 mph 70% 0.00 in 742 W/m2
16:50 79.1 °F 68.5 °F 29.93 in SSW 3 mph 3 mph 70% 0.00 in 758 W/m2
16:55 78.7 °F 68.1 °F 29.93 in South 2 mph 3 mph 70% 0.00 in 329 W/m2
17:00 78.5 °F 67.9 °F 29.93 in SW 2 mph 3 mph 70% 0.00 in 534 W/m2
17:05 78.9 °F 67.4 °F 29.93 in East 2 mph 3 mph 68% 0.00 in 673 W/m2
17:10 78.9 °F 69.1 °F 29.93 in NE 2 mph 2 mph 72% 0.00 in 624 W/m2
17:15 79 °F 68.4 °F 29.92 in East 2 mph 2 mph 70% 0.00 in 605 W/m2
17:20 78.9 °F 68.7 °F 29.92 in South 2 mph 4 mph 71% 0.00 in 598 W/m2
17:25 78.8 °F 68.2 °F 29.92 in SSW 2 mph 5 mph 70% 0.00 in 582 W/m2
17:30 78.7 °F 68.1 °F 29.92 in SW 2 mph 2 mph 70% 0.00 in 570 W/m2
17:35 78.8 °F 68.6 °F 29.91 in SSW 2 mph 3 mph 71% 0.00 in 557 W/m2
17:40 78.9 °F 69.1 °F 29.91 in SSW 2 mph 3 mph 72% 0.00 in 541 W/m2
17:45 78.9 °F 69.1 °F 29.91 in WSW 2 mph 3 mph 72% 0.00 in 526 W/m2
17:50 79 °F 69.2 °F 29.91 in SE 2 mph 2 mph 72% 0.00 in 508 W/m2
17:55 78.9 °F 69.1 °F 29.91 in South 1 mph 2 mph 72% 0.00 in 496 W/m2
18:00 78.9 °F 69.1 °F 29.91 in South 2 mph 2 mph 72% 0.00 in 489 W/m2
18:05 79 °F 68.8 °F 29.91 in SW 2 mph 2 mph 71% 0.00 in 469 W/m2
18:10 79.1 °F 69.3 °F 29.91 in SSW 2 mph 4 mph 72% 0.00 in 455 W/m2
18:15 79.2 °F 69.8 °F 29.90 in SSW 2 mph 4 mph 73% 0.00 in 445 W/m2
18:20 79.3 °F 69.9 °F 29.90 in South 2 mph 3 mph 73% 0.00 in 434 W/m2
18:25 79.3 °F 69.9 °F 29.91 in West 2 mph 3 mph 73% 0.00 in 323 W/m2
18:30 79.2 °F 69.8 °F 29.90 in West 2 mph 2 mph 73% 0.00 in 403 W/m2
18:35 79.2 °F 69.4 °F 29.90 in WNW 2 mph 2 mph 72% 0.00 in 381 W/m2
18:40 79.1 °F 69.7 °F 29.91 in West 2 mph 2 mph 73% 0.00 in 383 W/m2
18:45 79.1 °F 69.3 °F 29.91 in SW 2 mph 3 mph 72% 0.00 in 72 W/m2
18:50 78.9 °F 68.3 °F 29.90 in NE 1 mph 1 mph 70% 0.00 in 84 W/m2
18:55 78.7 °F 67.7 °F 29.90 in NE 1 mph 1 mph 69% 0.00 in 341 W/m2
19:00 78.8 °F 68.6 °F 29.90 in South 1 mph 1 mph 71% 0.00 in 105 W/m2
19:05 78.7 °F 68.9 °F 29.90 in SW 2 mph 2 mph 72% 0.00 in 174 W/m2
19:10 78.7 °F 68.9 °F 29.90 in SSE 2 mph 2 mph 72% 0.00 in 332 W/m2
19:15 78.6 °F 68.4 °F 29.90 in SSW 2 mph 2 mph 71% 0.00 in 255 W/m2
19:20 78.5 °F 68.3 °F 29.90 in SW 2 mph 2 mph 71% 0.00 in 264 W/m2
19:25 78.6 °F 68 °F 29.90 in SSW 2 mph 2 mph 70% 0.00 in 244 W/m2
19:30 78.5 °F 69.1 °F 29.90 in SSE 1 mph 3 mph 73% 0.00 in 90 W/m2
19:35 78.6 °F 68.8 °F 29.90 in SW 1 mph 3 mph 72% 0.00 in 248 W/m2
19:40 78.5 °F 69.1 °F 29.90 in WSW 1 mph 1 mph 73% 0.00 in 206 W/m2
19:45 78.6 °F 69.2 °F 29.90 in SSW 1 mph 1 mph 73% 0.00 in 188 W/m2
19:50 78.5 °F 68.7 °F 29.89 in South 1 mph 1 mph 72% 0.00 in 178 W/m2
19:55 78.5 °F 68.7 °F 29.89 in SW 2 mph 2 mph 72% 0.00 in 162 W/m2
20:00 78.5 °F 68.3 °F 29.89 in SSW 2 mph 2 mph 71% 0.00 in 125 W/m2
20:05 78.5 °F 68.7 °F 29.89 in WSW 2 mph 2 mph 72% 0.00 in 76 W/m2
20:10 78.5 °F 69.1 °F 29.89 in SSW 2 mph 2 mph 73% 0.00 in 58 W/m2
20:15 78.6 °F 69.6 °F 29.89 in SSW 2 mph 2 mph 74% 0.00 in 70 W/m2
20:20 78.5 °F 68.7 °F 29.89 in SW 2 mph 2 mph 72% 0.00 in 53 W/m2
20:25 78.5 °F 69.1 °F 29.89 in South 1 mph 3 mph 73% 0.00 in 60 W/m2
20:30 78.5 °F 68.7 °F 29.89 in WSW 1 mph 1 mph 72% 0.00 in 37 W/m2
20:35 78.5 °F 69.1 °F 29.89 in West 1 mph 1 mph 73% 0.00 in 28 W/m2
20:40 78.4 °F 69.4 °F 29.89 in SSW 1 mph 1 mph 74% 0.00 in 39 W/m2
20:45 78.5 °F 70.3 °F 29.89 in NE 1 mph 1 mph 76% 0.00 in 33 W/m2
20:50 78.5 °F 69.9 °F 29.89 in SSW 1 mph 3 mph 75% 0.00 in 32 W/m2
20:55 78.4 °F 69.4 °F 29.89 in South 1 mph 3 mph 74% 0.00 in 12 W/m2
21:00 78.3 °F 69.7 °F 29.89 in South 1 mph 2 mph 75% 0.00 in 7 W/m2
21:05 78.3 °F 69.3 °F 29.89 in West 1 mph 2 mph 74% 0.00 in 5 W/m2
21:10 78.3 °F 69.3 °F 29.89 in NE 1 mph 1 mph 74% 0.00 in 0 W/m2
21:15 78.3 °F 69.3 °F 29.89 in ENE 1 mph 1 mph 74% 0.00 in 0 W/m2
21:20 78.2 °F 69.2 °F 29.90 in WNW 1 mph 1 mph 74% 0.00 in 0 W/m2
21:25 78 °F 69.4 °F 29.90 in WNW 1 mph 4 mph 75% 0.00 in 0 W/m2
21:30 77.8 °F 69.2 °F 29.90 in NW 1 mph 3 mph 75% 0.00 in 0 W/m2
21:35 77.7 °F 69.1 °F 29.90 in North 1 mph 3 mph 75% 0.00 in 0 W/m2
21:40 77.6 °F 69 °F 29.90 in NW 1 mph 1 mph 75% 0.00 in 0 W/m2
21:45 77.4 °F 69.2 °F 29.91 in East 1 mph 2 mph 76% 0.00 in 0 W/m2
21:50 77.2 °F 69.8 °F 29.91 in ENE 1 mph 2 mph 78% 0.00 in 0 W/m2
21:55 77 °F 70 °F 29.91 in North 2 mph 2 mph 79% 0.00 in 0 W/m2
22:00 76.8 °F 70.2 °F 29.91 in SSE 2 mph 2 mph 80% 0.00 in 0 W/m2
22:05 76.6 °F 69.6 °F 29.91 in ENE 2 mph 2 mph 79% 0.00 in 0 W/m2
22:10 76.2 °F 68.8 °F 29.91 in East 2 mph 2 mph 78% 0.00 in 0 W/m2
22:15 75.9 °F 68.5 °F 29.91 in NE 2 mph 4 mph 78% 0.00 in 0 W/m2
22:20 75.6 °F 68.6 °F 29.91 in North 2 mph 2 mph 79% 0.00 in 0 W/m2
22:25 75.3 °F 68.3 °F 29.91 in ENE 2 mph 2 mph 79% 0.00 in 0 W/m2
22:30 75.1 °F 68.1 °F 29.90 in East 3 mph 3 mph 79% 0.00 in 0 W/m2
22:35 74.9 °F 68.3 °F 29.91 in East 2 mph 3 mph 80% 0.00 in 0 W/m2
22:40 74.6 °F 68 °F 29.91 in NE 1 mph 2 mph 80% 0.00 in 0 W/m2
22:45 74.3 °F 67.7 °F 29.90 in East 2 mph 3 mph 80% 0.00 in 0 W/m2
22:50 74.1 °F 67.5 °F 29.91 in NE 2 mph 2 mph 80% 0.00 in 0 W/m2
22:55 73.9 °F 67.3 °F 29.91 in ENE 2 mph 4 mph 80% 0.00 in 0 W/m2
23:00 73.6 °F 67 °F 29.91 in ESE 2 mph 3 mph 80% 0.00 in 0 W/m2
23:05 73.4 °F 66.9 °F 29.91 in NE 2 mph 3 mph 80% 0.00 in 0 W/m2
Sand Point, Michigan, USA
Compliments of Weather Underground - 2 mb